^^
Grace C. Lehan Memorial Weather Station Historical Data
Daily Summary for December 17, 2021 Units:  Both    English   Metric
Daily Weekly Monthly Yearly
  High: Low: Average:
Temperature: 60.9 °F /  16.1 °C 42.4 °F /  5.8 °C 53.1 °F /  11.7 °C
Dew Point: 47.1 °F /  8.4 °C 20.4 °F /  -6.4 °C 32.3 °F /  0.2 °C
Humidity: 80% 24% 49%
Wind Speed: 7.7mph /  12.4km/h - 2.1mph /  3.4km/h
Wind Gust: 19mph /  30.6km/h - -
Wind- - West
Pressure: 30.17 in /  1021.6 hPa 29.76 in /  1007.7 hPa -
Precipitation: 0.00 in /  0 mm    
 
 
Tabular Data for December 17, 2021
Time Temperature Dew Point Pressure Wind Wind Speed Wind Gust Humidity Rainfall Rate (Hourly) solar
00:04 53 °F /  11.7 °C 46.3 °F /  7.9 °C 29.80in /  1009hPa South 0.1mph /  0.2km/h 3mph /  4.8km/h 78% 0.00in /  0mm 0 W/m2
00:09 52.8 °F /  11.6 °C 46.5 °F /  8.1 °C 29.80in /  1009hPa Calm   2mph /  3.2km/h 79% 0.00in /  0mm 0 W/m2
00:14 52.7 °F /  11.5 °C 46.3 °F /  7.9 °C 29.80in /  1009hPa Calm   2mph /  3.2km/h 79% 0.00in /  0mm 0 W/m2
00:19 52.6 °F /  11.4 °C 46.5 °F /  8.1 °C 29.80in /  1009hPa South 0.1mph /  0.2km/h 2mph /  3.2km/h 79.6% 0.00in /  0mm 0 W/m2
00:24 52.5 °F /  11.4 °C 46.5 °F /  8.1 °C 29.79in /  1008.7hPa Calm   2mph /  3.2km/h 80% 0.00in /  0mm 0 W/m2
00:29 52.6 °F /  11.4 °C 46.6 °F /  8.1 °C 29.79in /  1008.7hPa Calm   2mph /  3.2km/h 80% 0.00in /  0mm 0 W/m2
00:34 52.7 °F /  11.5 °C 46.7 °F /  8.2 °C 29.79in /  1008.7hPa Calm   2mph /  3.2km/h 80% 0.00in /  0mm 0 W/m2
00:39 52.7 °F /  11.5 °C 46.7 °F /  8.2 °C 29.79in /  1008.7hPa Calm     80% 0.00in /  0mm 0 W/m2
00:44 52.7 °F /  11.5 °C 46.7 °F /  8.2 °C 29.79in /  1008.7hPa Calm     80% 0.00in /  0mm 0 W/m2
00:49 52.6 °F /  11.4 °C 46.6 °F /  8.1 °C 29.79in /  1008.7hPa Calm     80% 0.00in /  0mm 0 W/m2
00:54 52.5 °F /  11.4 °C 46.5 °F /  8.1 °C 29.78in /  1008.4hPa Calm     80% 0.00in /  0mm 0 W/m2
00:59 52.4 °F /  11.3 °C 46.5 °F /  8.1 °C 29.78in /  1008.4hPa Calm     80% 0.00in /  0mm 0 W/m2
01:04 52.4 °F /  11.3 °C 46.3 °F /  7.9 °C 29.78in /  1008.4hPa Calm     79.6% 0.00in /  0mm 0 W/m2
01:09 52.4 °F /  11.3 °C 46.1 °F /  7.8 °C 29.78in /  1008.4hPa South 0.1mph /  0.2km/h 2mph /  3.2km/h 79% 0.00in /  0mm 0 W/m2
01:14 52.4 °F /  11.3 °C 46.1 °F /  7.8 °C 29.78in /  1008.4hPa South 0.5mph /  0.8km/h 2mph /  3.2km/h 79% 0.00in /  0mm 0 W/m2
01:19 52.4 °F /  11.3 °C 46.1 °F /  7.8 °C 29.78in /  1008.4hPa South 0.8mph /  1.3km/h 4mph /  6.4km/h 79% 0.00in /  0mm 0 W/m2
01:24 52.4 °F /  11.3 °C 46 °F /  7.8 °C 29.77in /  1008hPa South 1.1mph /  1.8km/h 4mph /  6.4km/h 78.9% 0.00in /  0mm 0 W/m2
01:29 52.6 °F /  11.4 °C 45.9 °F /  7.7 °C 29.77in /  1008hPa South 1.6mph /  2.6km/h 5mph /  8km/h 78% 0.00in /  0mm 0 W/m2
01:34 52.9 °F /  11.6 °C 46 °F /  7.8 °C 29.77in /  1008hPa South 1mph /  1.6km/h 5mph /  8km/h 77.4% 0.00in /  0mm 0 W/m2
01:39 53.2 °F /  11.8 °C 46.2 °F /  7.9 °C 29.77in /  1008hPa SSW 1.7mph /  2.7km/h 5mph /  8km/h 76.8% 0.00in /  0mm 0 W/m2
01:44 53.7 °F /  12.1 °C 46.3 °F /  7.9 °C 29.76in /  1007.7hPa SSW 1.7mph /  2.7km/h 6mph /  9.7km/h 76% 0.00in /  0mm 0 W/m2
01:49 54.1 °F /  12.3 °C 46.3 °F /  7.9 °C 29.76in /  1007.7hPa SSW 2.3mph /  3.7km/h 6mph /  9.7km/h 75% 0.00in /  0mm 0 W/m2
01:54 54.5 °F /  12.5 °C 46.4 °F /  8 °C 29.77in /  1008hPa SSW 1.5mph /  2.4km/h 6mph /  9.7km/h 74.2% 0.00in /  0mm 0 W/m2
01:59 54.9 °F /  12.7 °C 46.5 °F /  8.1 °C 29.77in /  1008hPa SSW 1.1mph /  1.8km/h 6mph /  9.7km/h 73.3% 0.00in /  0mm 0 W/m2
02:04 55.1 °F /  12.8 °C 46.7 °F /  8.2 °C 29.77in /  1008hPa SSW 0.8mph /  1.3km/h 6mph /  9.7km/h 73% 0.00in /  0mm 0 W/m2
02:09 55.3 °F /  12.9 °C 46.5 °F /  8.1 °C 29.78in /  1008.4hPa SSW 0.7mph /  1.1km/h 4mph /  6.4km/h 72.1% 0.00in /  0mm 0 W/m2
02:14 55.4 °F /  13 °C 46.5 °F /  8.1 °C 29.77in /  1008hPa SSW 1.4mph /  2.3km/h 5mph /  8km/h 72% 0.00in /  0mm 0 W/m2
02:19 55.4 °F /  13 °C 46.6 °F /  8.1 °C 29.77in /  1008hPa SSW 0.8mph /  1.3km/h 6mph /  9.7km/h 72% 0.00in /  0mm 0 W/m2
02:24 55.4 °F /  13 °C 46.5 °F /  8.1 °C 29.78in /  1008.4hPa SSW 0.3mph /  0.5km/h 6mph /  9.7km/h 72% 0.00in /  0mm 0 W/m2
02:29 55.3 °F /  12.9 °C 46.4 °F /  8 °C 29.78in /  1008.4hPa Calm   6mph /  9.7km/h 72% 0.00in /  0mm 0 W/m2
02:34 55.1 °F /  12.8 °C 46.3 °F /  7.9 °C 29.78in /  1008.4hPa Calm   6mph /  9.7km/h 72% 0.00in /  0mm 0 W/m2
02:39 55 °F /  12.8 °C 46.2 °F /  7.9 °C 29.78in /  1008.4hPa Calm     72.1% 0.00in /  0mm 0 W/m2
02:44 54.9 °F /  12.7 °C 46.2 °F /  7.9 °C 29.78in /  1008.4hPa Calm     72.5% 0.00in /  0mm 0 W/m2
02:49 54.8 °F /  12.7 °C 46.3 °F /  7.9 °C 29.78in /  1008.4hPa Calm   1mph /  1.6km/h 73% 0.00in /  0mm 0 W/m2
02:54 54.6 °F /  12.6 °C 46.2 °F /  7.9 °C 29.78in /  1008.4hPa Calm   1mph /  1.6km/h 73% 0.00in /  0mm 0 W/m2
02:59 54.5 °F /  12.5 °C 46.2 °F /  7.9 °C 29.78in /  1008.4hPa SSW 0.1mph /  0.2km/h 2mph /  3.2km/h 73.3% 0.00in /  0mm 0 W/m2
03:04 54.4 °F /  12.4 °C 46.3 °F /  7.9 °C 29.78in /  1008.4hPa SSW 0.4mph /  0.6km/h 3mph /  4.8km/h 74% 0.00in /  0mm 0 W/m2
03:09 54.3 °F /  12.4 °C 46.2 °F /  7.9 °C 29.78in /  1008.4hPa SSW 1.5mph /  2.4km/h 4mph /  6.4km/h 74% 0.00in /  0mm 0 W/m2
03:14 54.2 °F /  12.3 °C 46.1 °F /  7.8 °C 29.78in /  1008.4hPa SSW 0.7mph /  1.1km/h 4mph /  6.4km/h 74% 0.00in /  0mm 0 W/m2
03:19 54.1 °F /  12.3 °C 46.3 °F /  7.9 °C 29.77in /  1008hPa SSW 1mph /  1.6km/h 4mph /  6.4km/h 74.8% 0.00in /  0mm 0 W/m2
03:24 54 °F /  12.2 °C 46.3 °F /  7.9 °C 29.78in /  1008.4hPa SSW 1.5mph /  2.4km/h 4mph /  6.4km/h 75% 0.00in /  0mm 0 W/m2
03:29 54 °F /  12.2 °C 46.2 °F /  7.9 °C 29.78in /  1008.4hPa SSW 1.8mph /  2.9km/h 6mph /  9.7km/h 75% 0.00in /  0mm 0 W/m2
03:34 53.9 °F /  12.2 °C 46.2 °F /  7.9 °C 29.78in /  1008.4hPa SSW 2mph /  3.2km/h 6mph /  9.7km/h 75% 0.00in /  0mm 0 W/m2
03:39 53.9 °F /  12.2 °C 46.4 °F /  8 °C 29.77in /  1008hPa SSW 2.7mph /  4.3km/h 6mph /  9.7km/h 75.7% 0.00in /  0mm 0 W/m2
03:44 53.8 °F /  12.1 °C 46.4 °F /  8 °C 29.77in /  1008hPa SSW 1.8mph /  2.9km/h 6mph /  9.7km/h 76% 0.00in /  0mm 0 W/m2
03:49 53.7 °F /  12.1 °C 46.3 °F /  7.9 °C 29.78in /  1008.4hPa SSW 1.2mph /  1.9km/h 6mph /  9.7km/h 76% 0.00in /  0mm 0 W/m2
03:54 53.6 °F /  12 °C 46.3 °F /  7.9 °C 29.78in /  1008.4hPa SSW 0.6mph /  1km/h 6mph /  9.7km/h 76% 0.00in /  0mm 0 W/m2
03:59 53.5 °F /  11.9 °C 46.3 °F /  7.9 °C 29.78in /  1008.4hPa SSW 0.9mph /  1.4km/h 6mph /  9.7km/h 76.4% 0.00in /  0mm 0 W/m2
04:00 53.5 °F /  11.9 °C 46.5 °F /  8.1 °C 29.78in /  1008.4hPa Calm   6mph /  9.7km/h 77% 0.00in /  0mm 0 W/m2
04:09 53.4 °F /  11.9 °C 46.4 °F /  8 °C 29.78in /  1008.4hPa SSW 1.9mph /  3.1km/h 5mph /  8km/h 77% 0.00in /  0mm 0 W/m2
04:14 53.4 °F /  11.9 °C 46.4 °F /  8 °C 29.78in /  1008.4hPa SSW 3.3mph /  5.3km/h 6mph /  9.7km/h 77% 0.00in /  0mm 0 W/m2
04:19 53.4 °F /  11.9 °C 46.4 °F /  8 °C 29.78in /  1008.4hPa SSW 2.9mph /  4.7km/h 6mph /  9.7km/h 77% 0.00in /  0mm 0 W/m2
04:24 53.5 °F /  11.9 °C 46.5 °F /  8.1 °C 29.78in /  1008.4hPa SSW 3.7mph /  6km/h 7mph /  11.3km/h 77% 0.00in /  0mm 0 W/m2
04:29 53.5 °F /  11.9 °C 46.5 °F /  8.1 °C 29.78in /  1008.4hPa SW 3.4mph /  5.5km/h 7mph /  11.3km/h 77% 0.00in /  0mm 0 W/m2
04:34 53.5 °F /  11.9 °C 46.6 °F /  8.1 °C 29.78in /  1008.4hPa SW 3.4mph /  5.5km/h 7mph /  11.3km/h 77.3% 0.00in /  0mm 0 W/m2
04:39 53.5 °F /  11.9 °C 46.8 °F /  8.2 °C 29.78in /  1008.4hPa SW 1.8mph /  2.9km/h 7mph /  11.3km/h 78% 0.00in /  0mm 0 W/m2
04:44 53.5 °F /  11.9 °C 46.8 °F /  8.2 °C 29.78in /  1008.4hPa SW 3.6mph /  5.8km/h 9mph /  14.5km/h 78% 0.00in /  0mm 0 W/m2
04:49 53.6 °F /  12 °C 46.8 °F /  8.2 °C 29.78in /  1008.4hPa SW 2.4mph /  3.9km/h 9mph /  14.5km/h 77.8% 0.00in /  0mm 0 W/m2
04:54 53.5 °F /  11.9 °C 46.7 °F /  8.2 °C 29.79in /  1008.7hPa SW 1.5mph /  2.4km/h 9mph /  14.5km/h 77.5% 0.00in /  0mm 0 W/m2
04:59 53.5 °F /  11.9 °C 46.8 °F /  8.2 °C 29.80in /  1009hPa SW 0.7mph /  1.1km/h 9mph /  14.5km/h 78% 0.00in /  0mm 0 W/m2
05:04 53.4 °F /  11.9 °C 46.8 °F /  8.2 °C 29.80in /  1009hPa SW 1.7mph /  2.7km/h 9mph /  14.5km/h 78% 0.00in /  0mm 0 W/m2
05:09 53.5 °F /  11.9 °C 46.8 °F /  8.2 °C 29.80in /  1009hPa SW 1.9mph /  3.1km/h 10mph /  16.1km/h 78% 0.00in /  0mm 0 W/m2
05:14 53.7 °F /  12.1 °C 47 °F /  8.3 °C 29.80in /  1009hPa SW 2mph /  3.2km/h 10mph /  16.1km/h 78% 0.00in /  0mm 0 W/m2
05:19 53.8 °F /  12.1 °C 47.1 °F /  8.4 °C 29.82in /  1009.7hPa WSW 1.9mph /  3.1km/h 10mph /  16.1km/h 77.7% 0.00in /  0mm 0 W/m2
05:24 54 °F /  12.2 °C 46.9 °F /  8.3 °C 29.82in /  1009.7hPa WSW 0.9mph /  1.4km/h 10mph /  16.1km/h 77% 0.00in /  0mm 0 W/m2
05:29 54.1 °F /  12.3 °C 47 °F /  8.3 °C 29.83in /  1010hPa WSW 0.4mph /  0.6km/h 10mph /  16.1km/h 77% 0.00in /  0mm 0 W/m2
05:34 54.1 °F /  12.3 °C 47.1 °F /  8.4 °C 29.83in /  1010hPa WSW 0.1mph /  0.2km/h 10mph /  16.1km/h 77% 0.00in /  0mm 0 W/m2
05:39 54.1 °F /  12.3 °C 47 °F /  8.3 °C 29.84in /  1010.4hPa Calm   4mph /  6.4km/h 77% 0.00in /  0mm 0 W/m2
05:44 54 °F /  12.2 °C 46.9 °F /  8.3 °C 29.85in /  1010.7hPa WSW 0.2mph /  0.3km/h 4mph /  6.4km/h 76.7% 0.00in /  0mm 0 W/m2
05:49 54 °F /  12.2 °C 46.9 °F /  8.3 °C 29.85in /  1010.7hPa West 1mph /  1.6km/h 6mph /  9.7km/h 76.8% 0.00in /  0mm 0 W/m2
05:54 54.1 °F /  12.3 °C 46.7 °F /  8.2 °C 29.86in /  1011.1hPa West 1.7mph /  2.7km/h 7mph /  11.3km/h 76% 0.00in /  0mm 0 W/m2
05:59 54.2 °F /  12.3 °C 46.6 °F /  8.1 °C 29.87in /  1011.4hPa WNW 2.2mph /  3.5km/h 7mph /  11.3km/h 75.3% 0.00in /  0mm 0 W/m2
06:04 54.5 °F /  12.5 °C 46.2 °F /  7.9 °C 29.87in /  1011.4hPa NW 6.4mph /  10.3km/h 18mph /  29km/h 73.6% 0.00in /  0mm 0 W/m2
06:09 54.9 °F /  12.7 °C 44.2 °F /  6.8 °C 29.87in /  1011.4hPa NW 7.6mph /  12.2km/h 19mph /  30.6km/h 67.1% 0.00in /  0mm 0 W/m2
06:14 55.4 °F /  13 °C 43.4 °F /  6.3 °C 29.88in /  1011.7hPa WNW 6.4mph /  10.3km/h 19mph /  30.6km/h 63.8% 0.00in /  0mm 0 W/m2
06:19 55.7 °F /  13.2 °C 43.1 °F /  6.2 °C 29.89in /  1012.1hPa WNW 3.5mph /  5.6km/h 19mph /  30.6km/h 62.5% 0.00in /  0mm 0 W/m2
06:24 55.7 °F /  13.2 °C 42.6 °F /  5.9 °C 29.89in /  1012.1hPa WNW 4.8mph /  7.7km/h 19mph /  30.6km/h 61.5% 0.00in /  0mm 0 W/m2
06:29 55.5 °F /  13.1 °C 41.9 °F /  5.5 °C 29.89in /  1012.1hPa WNW 4.2mph /  6.8km/h 19mph /  30.6km/h 60% 0.00in /  0mm 0 W/m2
06:34 55.4 °F /  13 °C 41.1 °F /  5.1 °C 29.90in /  1012.4hPa NW 3.9mph /  6.3km/h 19mph /  30.6km/h 58.5% 0.00in /  0mm 0 W/m2
06:39 55.2 °F /  12.9 °C 40.5 °F /  4.7 °C 29.90in /  1012.4hPa WNW 5.7mph /  9.2km/h 13mph /  20.9km/h 57.4% 0.00in /  0mm 0 W/m2
06:44 55.1 °F /  12.8 °C 39.8 °F /  4.3 °C 29.91in /  1012.8hPa WNW 2.6mph /  4.2km/h 13mph /  20.9km/h 56.3% 0.00in /  0mm 0 W/m2
06:49 54.9 °F /  12.7 °C 39.5 °F /  4.2 °C 29.91in /  1012.8hPa NW 1.9mph /  3.1km/h 13mph /  20.9km/h 56% 0.00in /  0mm 0 W/m2
06:54 54.7 °F /  12.6 °C 39.3 °F /  4.1 °C 29.91in /  1012.8hPa NW 1.7mph /  2.7km/h 13mph /  20.9km/h 56% 0.00in /  0mm 0 W/m2
06:59 54.5 °F /  12.5 °C 39.1 °F /  3.9 °C 29.91in /  1012.8hPa NW 0.8mph /  1.3km/h 13mph /  20.9km/h 56% 0.00in /  0mm 0 W/m2
07:04 54.2 °F /  12.3 °C 38.9 °F /  3.8 °C 29.92in /  1013.1hPa NW 1.2mph /  1.9km/h 13mph /  20.9km/h 56% 0.00in /  0mm 0 W/m2
07:09 54 °F /  12.2 °C 38.7 °F /  3.7 °C 29.92in /  1013.1hPa NW 0.2mph /  0.3km/h 4mph /  6.4km/h 56% 0.00in /  0mm 0 W/m2
07:14 53.8 °F /  12.1 °C 38.5 °F /  3.6 °C 29.93in /  1013.4hPa Calm   4mph /  6.4km/h 56% 0.00in /  0mm 5 W/m2
07:19 53.6 °F /  12 °C 38.3 °F /  3.5 °C 29.93in /  1013.4hPa NW 0.2mph /  0.3km/h 4mph /  6.4km/h 56% 0.00in /  0mm 5 W/m2
07:24 53.3 °F /  11.8 °C 38 °F /  3.3 °C 29.94in /  1013.8hPa NW 0.6mph /  1km/h 4mph /  6.4km/h 56% 0.00in /  0mm 9 W/m2
07:29 53.1 °F /  11.7 °C 37.6 °F /  3.1 °C 29.94in /  1013.8hPa NW 2.8mph /  4.5km/h 9mph /  14.5km/h 55.5% 0.00in /  0mm 12 W/m2
07:34 53 °F /  11.7 °C 36.7 °F /  2.6 °C 29.94in /  1013.8hPa NW 4.1mph /  6.6km/h 9mph /  14.5km/h 53.7% 0.00in /  0mm 16 W/m2
07:39 53 °F /  11.7 °C 36.2 °F /  2.3 °C 29.94in /  1013.8hPa WNW 5.7mph /  9.2km/h 12mph /  19.3km/h 52.7% 0.00in /  0mm 30 W/m2
07:44 53.1 °F /  11.7 °C 35.6 °F /  2 °C 29.94in /  1013.8hPa WNW 3.1mph /  5km/h 12mph /  19.3km/h 51.2% 0.00in /  0mm 46 W/m2
07:49 53.2 °F /  11.8 °C 34.8 °F /  1.6 °C 29.95in /  1014.1hPa WNW 3.6mph /  5.8km/h 12mph /  19.3km/h 49.4% 0.00in /  0mm 56 W/m2
07:54 53.6 °F /  12 °C 34 °F /  1.1 °C 29.95in /  1014.1hPa WNW 3.4mph /  5.5km/h 12mph /  19.3km/h 47.3% 0.00in /  0mm 56 W/m2
07:59 53.9 °F /  12.2 °C 34.2 °F /  1.2 °C 29.95in /  1014.1hPa WNW 2.7mph /  4.3km/h 12mph /  19.3km/h 47.1% 0.00in /  0mm 74 W/m2
08:00 54 °F /  12.2 °C 33.2 °F /  0.7 °C 29.95in /  1014.1hPa NW 1.5mph /  2.4km/h 12mph /  19.3km/h 45% 0.00in /  0mm 74 W/m2
08:09 54.4 °F /  12.4 °C 32.8 °F /  0.4 °C 29.95in /  1014.1hPa NW 2.2mph /  3.5km/h 9mph /  14.5km/h 43.7% 0.00in /  0mm 107 W/m2
08:14 54.7 °F /  12.6 °C 32.4 °F /  0.2 °C 29.95in /  1014.1hPa WNW 2mph /  3.2km/h 9mph /  14.5km/h 42.6% 0.00in /  0mm 121 W/m2
08:19 55 °F /  12.8 °C 32 °F /  0 °C 29.95in /  1014.1hPa WNW 2.7mph /  4.3km/h 12mph /  19.3km/h 41.4% 0.00in /  0mm 148 W/m2
08:24 55.5 °F /  13.1 °C 32.2 °F /  0.1 °C 29.95in /  1014.1hPa WNW 1.2mph /  1.9km/h 12mph /  19.3km/h 41% 0.00in /  0mm 163 W/m2
08:29 56 °F /  13.3 °C 32.5 °F /  0.3 °C 29.96in /  1014.4hPa WNW 1.4mph /  2.3km/h 12mph /  19.3km/h 40.7% 0.00in /  0mm 148 W/m2
08:34 56.6 °F /  13.7 °C 32.5 °F /  0.3 °C 29.96in /  1014.4hPa West 0.3mph /  0.5km/h 12mph /  19.3km/h 39.9% 0.00in /  0mm 151 W/m2
08:39 57.2 °F /  14 °C 32.6 °F /  0.3 °C 29.97in /  1014.8hPa West 0.2mph /  0.3km/h 4mph /  6.4km/h 39.2% 0.00in /  0mm 181 W/m2
08:44 57.7 °F /  14.3 °C 32.7 °F /  0.4 °C 29.97in /  1014.8hPa WNW 1.2mph /  1.9km/h 10mph /  16.1km/h 38.7% 0.00in /  0mm 181 W/m2
08:49 57.8 °F /  14.3 °C 31.5 °F /  -0.3 °C 29.98in /  1015.1hPa WNW 3.2mph /  5.1km/h 10mph /  16.1km/h 36.7% 0.00in /  0mm 176 W/m2
08:54 57.5 °F /  14.2 °C 30.2 °F /  -1 °C 29.98in /  1015.1hPa WNW 3.8mph /  6.1km/h 11mph /  17.7km/h 35.2% 0.00in /  0mm 199 W/m2
08:59 57.2 °F /  14 °C 28.5 °F /  -1.9 °C 29.97in /  1014.8hPa WNW 6.5mph /  10.5km/h 15mph /  24.1km/h 33.2% 0.00in /  0mm 211 W/m2
09:04 56.9 °F /  13.8 °C 27.9 °F /  -2.3 °C 29.98in /  1015.1hPa West 2.7mph /  4.3km/h 15mph /  24.1km/h 32.7% 0.00in /  0mm 144 W/m2
09:09 56.9 °F /  13.8 °C 27.7 °F /  -2.4 °C 29.98in /  1015.1hPa West 3.1mph /  5km/h 10mph /  16.1km/h 32.5% 0.00in /  0mm 146 W/m2
09:14 56.8 °F /  13.8 °C 27.6 °F /  -2.4 °C 29.99in /  1015.5hPa WNW 1.7mph /  2.7km/h 10mph /  16.1km/h 32.5% 0.00in /  0mm 193 W/m2
09:19 56.8 °F /  13.8 °C 26.7 °F /  -2.9 °C 29.98in /  1015.1hPa WNW 5.1mph /  8.2km/h 14mph /  22.5km/h 31.3% 0.00in /  0mm 135 W/m2
09:24 56.7 °F /  13.7 °C 26.4 °F /  -3.1 °C 29.98in /  1015.1hPa West 3.6mph /  5.8km/h 14mph /  22.5km/h 31% 0.00in /  0mm 163 W/m2
09:29 56.6 °F /  13.7 °C 26.2 °F /  -3.2 °C 29.98in /  1015.1hPa WNW 5mph /  8km/h 14mph /  22.5km/h 30.8% 0.00in /  0mm 148 W/m2
09:34 56.5 °F /  13.6 °C 25.6 °F /  -3.6 °C 29.99in /  1015.5hPa WNW 2.9mph /  4.7km/h 14mph /  22.5km/h 30.2% 0.00in /  0mm 146 W/m2
09:39 56.4 °F /  13.6 °C 25.9 °F /  -3.4 °C 29.99in /  1015.5hPa WNW 2.8mph /  4.5km/h 10mph /  16.1km/h 30.7% 0.00in /  0mm 183 W/m2
09:44 56.4 °F /  13.6 °C 25.9 °F /  -3.4 °C 29.99in /  1015.5hPa West 2.9mph /  4.7km/h 12mph /  19.3km/h 30.6% 0.00in /  0mm 148 W/m2
09:49 56.4 °F /  13.6 °C 25.5 °F /  -3.6 °C 29.99in /  1015.5hPa West 4.4mph /  7.1km/h 12mph /  19.3km/h 30.2% 0.00in /  0mm 132 W/m2
09:54 56.4 °F /  13.6 °C 25.5 °F /  -3.6 °C 29.99in /  1015.5hPa West 3.2mph /  5.1km/h 12mph /  19.3km/h 30.1% 0.00in /  0mm 134 W/m2
09:59 56.4 °F /  13.6 °C 25.5 °F /  -3.6 °C 29.99in /  1015.5hPa WNW 5.4mph /  8.7km/h 14mph /  22.5km/h 30.2% 0.00in /  0mm 197 W/m2
10:04 56.5 °F /  13.6 °C 25.3 °F /  -3.7 °C 29.99in /  1015.5hPa WNW 4.8mph /  7.7km/h 14mph /  22.5km/h 29.8% 0.00in /  0mm 197 W/m2
10:09 56.8 °F /  13.8 °C 26.1 °F /  -3.3 °C 29.99in /  1015.5hPa West 1.5mph /  2.4km/h 13mph /  20.9km/h 30.5% 0.00in /  0mm 269 W/m2
10:14 57.3 °F /  14.1 °C 26.1 °F /  -3.3 °C 29.99in /  1015.5hPa WNW 2.4mph /  3.9km/h 13mph /  20.9km/h 30% 0.00in /  0mm 330 W/m2
10:19 58 °F /  14.4 °C 26.8 °F /  -2.9 °C 29.99in /  1015.5hPa WNW 4.1mph /  6.6km/h 13mph /  20.9km/h 30.1% 0.00in /  0mm 406 W/m2
10:24 58.7 °F /  14.8 °C 26.4 °F /  -3.1 °C 29.99in /  1015.5hPa WNW 2.9mph /  4.7km/h 13mph /  20.9km/h 28.8% 0.00in /  0mm 431 W/m2
10:29 59.3 °F /  15.2 °C 26.9 °F /  -2.8 °C 29.98in /  1015.1hPa WNW 4.5mph /  7.2km/h 13mph /  20.9km/h 28.8% 0.00in /  0mm 438 W/m2
10:34 59.7 °F /  15.4 °C 26.9 °F /  -2.8 °C 29.98in /  1015.1hPa WNW 4.8mph /  7.7km/h 13mph /  20.9km/h 28.3% 0.00in /  0mm 443 W/m2
10:39 59.9 °F /  15.5 °C 26 °F /  -3.3 °C 29.98in /  1015.1hPa WNW 4.3mph /  6.9km/h 12mph /  19.3km/h 27.1% 0.00in /  0mm 441 W/m2
10:44 60 °F /  15.6 °C 26.1 °F /  -3.3 °C 29.98in /  1015.1hPa WNW 3.6mph /  5.8km/h 12mph /  19.3km/h 27.1% 0.00in /  0mm 410 W/m2
10:49 60 °F /  15.6 °C 25.9 °F /  -3.4 °C 29.98in /  1015.1hPa WNW 5.2mph /  8.4km/h 14mph /  22.5km/h 27% 0.00in /  0mm 276 W/m2
10:54 59.9 °F /  15.5 °C 25.7 °F /  -3.5 °C 29.98in /  1015.1hPa WNW 5.9mph /  9.5km/h 15mph /  24.1km/h 26.8% 0.00in /  0mm 104 W/m2
10:59 59.8 °F /  15.4 °C 25.6 °F /  -3.6 °C 29.98in /  1015.1hPa West 5.2mph /  8.4km/h 15mph /  24.1km/h 26.8% 0.00in /  0mm 114 W/m2
11:04 59.6 °F /  15.3 °C 25 °F /  -3.9 °C 29.98in /  1015.1hPa WNW 5.4mph /  8.7km/h 15mph /  24.1km/h 26.4% 0.00in /  0mm 169 W/m2
11:09 59.4 °F /  15.2 °C 25.3 °F /  -3.7 °C 29.97in /  1014.8hPa WNW 4.8mph /  7.7km/h 16mph /  25.7km/h 26.8% 0.00in /  0mm 79 W/m2
11:14 59.3 °F /  15.2 °C 25.6 °F /  -3.6 °C 29.97in /  1014.8hPa WNW 6.5mph /  10.5km/h 16mph /  25.7km/h 27.3% 0.00in /  0mm 86 W/m2
11:19 59.1 °F /  15.1 °C 25.2 °F /  -3.8 °C 29.97in /  1014.8hPa NW 5mph /  8km/h 16mph /  25.7km/h 26.9% 0.00in /  0mm 90 W/m2
11:24 59.1 °F /  15.1 °C 25.9 °F /  -3.4 °C 29.97in /  1014.8hPa NW 2.5mph /  4km/h 16mph /  25.7km/h 27.9% 0.00in /  0mm 83 W/m2
11:29 59.1 °F /  15.1 °C 25.8 °F /  -3.4 °C 29.97in /  1014.8hPa West 2mph /  3.2km/h 16mph /  25.7km/h 27.7% 0.00in /  0mm 200 W/m2
11:34 59.3 °F /  15.2 °C 26.1 °F /  -3.3 °C 29.97in /  1014.8hPa WNW 3.8mph /  6.1km/h 16mph /  25.7km/h 27.9% 0.00in /  0mm 241 W/m2
11:39 59.4 °F /  15.2 °C 26 °F /  -3.3 °C 29.96in /  1014.4hPa WNW 5.1mph /  8.2km/h 13mph /  20.9km/h 27.6% 0.00in /  0mm 294 W/m2
11:44 59.3 °F /  15.2 °C 26.2 °F /  -3.2 °C 29.97in /  1014.8hPa WNW 7.6mph /  12.2km/h 13mph /  20.9km/h 28% 0.00in /  0mm 214 W/m2
11:49 59.2 °F /  15.1 °C 25.9 °F /  -3.4 °C 29.97in /  1014.8hPa WNW 5.3mph /  8.5km/h 14mph /  22.5km/h 27.7% 0.00in /  0mm 114 W/m2
11:54 59.1 °F /  15.1 °C 26.6 °F /  -3 °C 29.97in /  1014.8hPa West 4.1mph /  6.6km/h 14mph /  22.5km/h 28.6% 0.00in /  0mm 100 W/m2
11:59 59.4 °F /  15.2 °C 26.8 °F /  -2.9 °C 29.97in /  1014.8hPa WNW 4.4mph /  7.1km/h 15mph /  24.1km/h 28.6% 0.00in /  0mm 380 W/m2
12:04 59.7 °F /  15.4 °C 25.7 °F /  -3.5 °C 29.97in /  1014.8hPa WNW 5mph /  8km/h 5mph /  8km/h 27% 0.00in /  0mm 153 W/m2
12:09 59.8 °F /  15.4 °C 26.7 °F /  -2.9 °C 29.97in /  1014.8hPa WNW 4.7mph /  7.6km/h 14mph /  22.5km/h 28% 0.00in /  0mm 448 W/m2
12:14 60 °F /  15.6 °C 26.3 °F /  -3.2 °C 29.97in /  1014.8hPa WNW 5.4mph /  8.7km/h 14mph /  22.5km/h 27.5% 0.00in /  0mm 438 W/m2
12:19 60 °F /  15.6 °C 26.1 °F /  -3.3 °C 29.97in /  1014.8hPa WNW 6.9mph /  11.1km/h 15mph /  24.1km/h 27.2% 0.00in /  0mm 316 W/m2
12:24 59.8 °F /  15.4 °C 25.9 °F /  -3.4 °C 29.97in /  1014.8hPa WNW 7mph /  11.3km/h 15mph /  24.1km/h 27.2% 0.00in /  0mm 60 W/m2
12:29 59.6 °F /  15.3 °C 25.3 °F /  -3.7 °C 29.97in /  1014.8hPa WNW 6.4mph /  10.3km/h 17mph /  27.4km/h 26.7% 0.00in /  0mm 83 W/m2
12:34 59.5 °F /  15.3 °C 25.2 °F /  -3.8 °C 29.97in /  1014.8hPa WNW 6.8mph /  10.9km/h 17mph /  27.4km/h 26.7% 0.00in /  0mm 246 W/m2
12:39 59.6 °F /  15.3 °C 25.5 °F /  -3.6 °C 29.97in /  1014.8hPa WNW 4.5mph /  7.2km/h 16mph /  25.7km/h 26.8% 0.00in /  0mm 475 W/m2
12:44 60.1 °F /  15.6 °C 25.1 °F /  -3.8 °C 29.97in /  1014.8hPa WNW 4.8mph /  7.7km/h 16mph /  25.7km/h 26% 0.00in /  0mm 475 W/m2
12:49 60.6 °F /  15.9 °C 26 °F /  -3.3 °C 29.96in /  1014.4hPa West 4.3mph /  6.9km/h 16mph /  25.7km/h 26.5% 0.00in /  0mm 141 W/m2
12:54 60.8 °F /  16 °C 25.7 °F /  -3.5 °C 29.96in /  1014.4hPa WNW 7.7mph /  12.4km/h 16mph /  25.7km/h 26% 0.00in /  0mm 62 W/m2
12:59 60.6 °F /  15.9 °C 24.8 °F /  -4 °C 29.96in /  1014.4hPa West 5mph /  8km/h 16mph /  25.7km/h 25.2% 0.00in /  0mm 51 W/m2
13:04 60.7 °F /  15.9 °C 25.2 °F /  -3.8 °C 29.96in /  1014.4hPa WSW 3mph /  4.8km/h 16mph /  25.7km/h 25.6% 0.00in /  0mm 313 W/m2
13:09 60.8 °F /  16 °C 25.4 °F /  -3.7 °C 29.96in /  1014.4hPa WSW 4.1mph /  6.6km/h 13mph /  20.9km/h 25.6% 0.00in /  0mm 288 W/m2
13:14 60.9 °F /  16.1 °C 24.8 °F /  -4 °C 29.96in /  1014.4hPa West 3.8mph /  6.1km/h 16mph /  25.7km/h 25% 0.00in /  0mm 251 W/m2
13:19 60.9 °F /  16.1 °C 24.6 °F /  -4.1 °C 29.96in /  1014.4hPa WNW 5.4mph /  8.7km/h 16mph /  25.7km/h 24.7% 0.00in /  0mm 318 W/m2
13:24 60.6 °F /  15.9 °C 23.8 °F /  -4.6 °C 29.96in /  1014.4hPa West 5.3mph /  8.5km/h 16mph /  25.7km/h 24.2% 0.00in /  0mm 348 W/m2
13:29 60.5 °F /  15.8 °C 23.7 °F /  -4.6 °C 29.96in /  1014.4hPa WNW 6.2mph /  10km/h 16mph /  25.7km/h 24.1% 0.00in /  0mm 345 W/m2
13:34 60.3 °F /  15.7 °C 23.8 °F /  -4.6 °C 29.96in /  1014.4hPa West 3.6mph /  5.8km/h 16mph /  25.7km/h 24.4% 0.00in /  0mm 209 W/m2
13:39 60.1 °F /  15.6 °C 23.9 °F /  -4.5 °C 29.96in /  1014.4hPa WNW 3mph /  4.8km/h 11mph /  17.7km/h 24.8% 0.00in /  0mm 192 W/m2
13:44 60 °F /  15.6 °C 24.1 °F /  -4.4 °C 29.96in /  1014.4hPa West 2.2mph /  3.5km/h 11mph /  17.7km/h 25% 0.00in /  0mm 125 W/m2
13:49 60 °F /  15.6 °C 25.4 °F /  -3.7 °C 29.96in /  1014.4hPa West 0.8mph /  1.3km/h 11mph /  17.7km/h 26.4% 0.00in /  0mm 128 W/m2
13:54 60 °F /  15.6 °C 25.5 °F /  -3.6 °C 29.96in /  1014.4hPa WSW 1.5mph /  2.4km/h 11mph /  17.7km/h 26.5% 0.00in /  0mm 144 W/m2
13:57 60.1 °F /  15.6 °C 24.8 °F /  -4 °C 29.96in /  1014.4hPa WSW 1.1mph /  1.8km/h 11mph /  17.7km/h 25.7% 0.00in /  0mm 193 W/m2
14:00 60.2 °F /  15.7 °C 25.2 °F /  -3.8 °C 29.96in /  1014.4hPa WSW 2mph /  3.2km/h 11mph /  17.7km/h 26% 0.00in /  0mm 135 W/m2
14:30 59.7 °F /  15.4 °C 22.9 °F /  -5.1 °C 29.97in /  1014.8hPa WNW 4mph /  6.4km/h 15mph /  24.1km/h 24% 0.00in /  0mm 122 W/m2
15:00 58.7 °F /  14.8 °C 23 °F /  -5 °C 29.97in /  1014.8hPa WNW 3mph /  4.8km/h 16mph /  25.7km/h 25% 0.00in /  0mm 36 W/m2
15:30 57.2 °F /  14 °C 21.7 °F /  -5.7 °C 29.98in /  1015.1hPa West 2mph /  3.2km/h 12mph /  19.3km/h 25% 0.00in /  0mm 26 W/m2
16:04 55.7 °F /  13.2 °C 22.1 °F /  -5.5 °C 30.00in /  1015.8hPa West 0.2mph /  0.3km/h 12mph /  19.3km/h 26.8% 0.00in /  0mm 26 W/m2
16:09 55.5 °F /  13.1 °C 22.1 °F /  -5.5 °C 30.00in /  1015.8hPa West 0.2mph /  0.3km/h 3mph /  4.8km/h 27% 0.00in /  0mm 9 W/m2
16:14 55.2 °F /  12.9 °C 21.8 °F /  -5.7 °C 30.00in /  1015.8hPa West 0.5mph /  0.8km/h 4mph /  6.4km/h 27% 0.00in /  0mm 7 W/m2
16:19 55 °F /  12.8 °C 21.7 °F /  -5.7 °C 30.00in /  1015.8hPa Calm   4mph /  6.4km/h 27% 0.00in /  0mm 5 W/m2
16:24 54.8 °F /  12.7 °C 21.5 °F /  -5.8 °C 30.00in /  1015.8hPa West 0.1mph /  0.2km/h 4mph /  6.4km/h 27% 0.00in /  0mm 0 W/m2
16:29 54.5 °F /  12.5 °C 21.3 °F /  -5.9 °C 30.00in /  1015.8hPa Calm   4mph /  6.4km/h 27% 0.00in /  0mm 0 W/m2
16:34 54.3 °F /  12.4 °C 21.1 °F /  -6.1 °C 30.01in /  1016.1hPa West 0.5mph /  0.8km/h 4mph /  6.4km/h 27% 0.00in /  0mm 0 W/m2
16:39 54.1 °F /  12.3 °C 21.2 °F /  -6 °C 30.01in /  1016.1hPa West 0.5mph /  0.8km/h 6mph /  9.7km/h 27.3% 0.00in /  0mm 0 W/m2
16:44 53.9 °F /  12.2 °C 21.5 °F /  -5.8 °C 30.01in /  1016.1hPa Calm   6mph /  9.7km/h 28% 0.00in /  0mm 0 W/m2
16:49 53.7 °F /  12.1 °C 20.7 °F /  -6.3 °C 30.02in /  1016.5hPa West 0.4mph /  0.6km/h 6mph /  9.7km/h 27.2% 0.00in /  0mm 0 W/m2
16:54 53.5 °F /  11.9 °C 21.2 °F /  -6 °C 30.02in /  1016.5hPa Calm   6mph /  9.7km/h 28% 0.00in /  0mm 0 W/m2
16:59 53.2 °F /  11.8 °C 21 °F /  -6.1 °C 30.03in /  1016.8hPa Calm   6mph /  9.7km/h 28% 0.00in /  0mm 0 W/m2
17:04 53 °F /  11.7 °C 20.8 °F /  -6.2 °C 30.03in /  1016.8hPa Calm   6mph /  9.7km/h 28% 0.00in /  0mm 0 W/m2
17:09 52.8 °F /  11.6 °C 20.8 °F /  -6.2 °C 30.03in /  1016.8hPa West 0.3mph /  0.5km/h 5mph /  8km/h 28.2% 0.00in /  0mm 0 W/m2
17:14 52.5 °F /  11.4 °C 21.2 °F /  -6 °C 30.03in /  1016.8hPa West 0.3mph /  0.5km/h 5mph /  8km/h 29% 0.00in /  0mm 0 W/m2
17:19 52.3 °F /  11.3 °C 21.4 °F /  -5.9 °C 30.03in /  1016.8hPa Calm   5mph /  8km/h 29.5% 0.00in /  0mm 0 W/m2
17:24 52 °F /  11.1 °C 21.4 °F /  -5.9 °C 30.03in /  1016.8hPa Calm   5mph /  8km/h 29.9% 0.00in /  0mm 0 W/m2
17:29 51.7 °F /  10.9 °C 21.3 °F /  -5.9 °C 30.04in /  1017.2hPa West 0.3mph /  0.5km/h 5mph /  8km/h 30% 0.00in /  0mm 0 W/m2
17:34 51.5 °F /  10.8 °C 21.1 °F /  -6.1 °C 30.04in /  1017.2hPa Calm   5mph /  8km/h 30% 0.00in /  0mm 0 W/m2
17:39 51.3 °F /  10.7 °C 20.9 °F /  -6.2 °C 30.04in /  1017.2hPa West 0.1mph /  0.2km/h 3mph /  4.8km/h 30% 0.00in /  0mm 0 W/m2
17:44 51.1 °F /  10.6 °C 20.8 °F /  -6.2 °C 30.04in /  1017.2hPa West 0.5mph /  0.8km/h 3mph /  4.8km/h 30% 0.00in /  0mm 0 W/m2
17:49 51 °F /  10.6 °C 20.7 °F /  -6.3 °C 30.04in /  1017.2hPa West 0.2mph /  0.3km/h 3mph /  4.8km/h 30% 0.00in /  0mm 0 W/m2
17:54 50.9 °F /  10.5 °C 20.6 °F /  -6.3 °C 30.04in /  1017.2hPa Calm   3mph /  4.8km/h 30% 0.00in /  0mm 0 W/m2
17:59 50.8 °F /  10.4 °C 20.6 °F /  -6.3 °C 30.05in /  1017.5hPa West 0.5mph /  0.8km/h 3mph /  4.8km/h 30.1% 0.00in /  0mm 0 W/m2
18:04 50.6 °F /  10.3 °C 21.5 °F /  -5.8 °C 30.05in /  1017.5hPa West 0.6mph /  1km/h 4mph /  6.4km/h 31.5% 0.00in /  0mm 0 W/m2
18:09 50.5 °F /  10.3 °C 21.6 °F /  -5.8 °C 30.06in /  1017.8hPa West 0.3mph /  0.5km/h 4mph /  6.4km/h 31.7% 0.00in /  0mm 0 W/m2
18:14 50.4 °F /  10.2 °C 21.7 °F /  -5.7 °C 30.06in /  1017.8hPa West 0.3mph /  0.5km/h 4mph /  6.4km/h 32% 0.00in /  0mm 0 W/m2
18:19 50.3 °F /  10.2 °C 21.6 °F /  -5.8 °C 30.06in /  1017.8hPa West 0.2mph /  0.3km/h 4mph /  6.4km/h 32% 0.00in /  0mm 0 W/m2
18:24 50.2 °F /  10.1 °C 22 °F /  -5.6 °C 30.07in /  1018.2hPa Calm   4mph /  6.4km/h 32.7% 0.00in /  0mm 0 W/m2
18:29 50.1 °F /  10.1 °C 22.7 °F /  -5.2 °C 30.07in /  1018.2hPa Calm   4mph /  6.4km/h 33.8% 0.00in /  0mm 0 W/m2
18:34 49.9 °F /  9.9 °C 22.6 °F /  -5.2 °C 30.07in /  1018.2hPa Calm   4mph /  6.4km/h 34% 0.00in /  0mm 0 W/m2
18:39 49.6 °F /  9.8 °C 21.8 °F /  -5.7 °C 30.07in /  1018.2hPa Calm     33% 0.00in /  0mm 0 W/m2
18:44 49.5 °F /  9.7 °C 21.5 °F /  -5.8 °C 30.07in /  1018.2hPa Calm     32.9% 0.00in /  0mm 0 W/m2
18:49 49.5 °F /  9.7 °C 20.9 °F /  -6.2 °C 30.08in /  1018.5hPa Calm     32% 0.00in /  0mm 0 W/m2
18:54 49.4 °F /  9.7 °C 21 °F /  -6.1 °C 30.07in /  1018.2hPa Calm     32.3% 0.00in /  0mm 0 W/m2
18:59 49.2 °F /  9.6 °C 20.7 °F /  -6.3 °C 30.07in /  1018.2hPa Calm     32% 0.00in /  0mm 0 W/m2
19:04 49.2 °F /  9.6 °C 20.7 °F /  -6.3 °C 30.07in /  1018.2hPa Calm     32.1% 0.00in /  0mm 0 W/m2
19:09 49.1 °F /  9.5 °C 20.7 °F /  -6.3 °C 30.08in /  1018.5hPa Calm     32.2% 0.00in /  0mm 0 W/m2
19:14 49 °F /  9.4 °C 20.8 °F /  -6.2 °C 30.08in /  1018.5hPa Calm     32.5% 0.00in /  0mm 0 W/m2
19:19 48.9 °F /  9.4 °C 20.4 °F /  -6.4 °C 30.07in /  1018.2hPa Calm     32% 0.00in /  0mm 0 W/m2
19:24 48.8 °F /  9.3 °C 21.1 °F /  -6.1 °C 30.07in /  1018.2hPa Calm     33.2% 0.00in /  0mm 0 W/m2
19:29 48.6 °F /  9.2 °C 21.9 °F /  -5.6 °C 30.08in /  1018.5hPa Calm     34.6% 0.00in /  0mm 0 W/m2
19:34 48.3 °F /  9.1 °C 21.8 °F /  -5.7 °C 30.08in /  1018.5hPa Calm     34.8% 0.00in /  0mm 0 W/m2
19:39 47.9 °F /  8.8 °C 22 °F /  -5.6 °C 30.08in /  1018.5hPa Calm     35.6% 0.00in /  0mm 0 W/m2
19:44 47.5 °F /  8.6 °C 22.3 °F /  -5.4 °C 30.08in /  1018.5hPa Calm     36.5% 0.00in /  0mm 0 W/m2
19:49 47.2 °F /  8.4 °C 23.3 °F /  -4.8 °C 30.08in /  1018.5hPa Calm     38.7% 0.00in /  0mm 0 W/m2
19:54 46.7 °F /  8.2 °C 22.5 °F /  -5.3 °C 30.08in /  1018.5hPa Calm     38% 0.00in /  0mm 0 W/m2
19:59 46.4 °F /  8 °C 21.6 °F /  -5.8 °C 30.08in /  1018.5hPa Calm     37% 0.00in /  0mm 0 W/m2
20:04 46.2 °F /  7.9 °C 21.4 °F /  -5.9 °C 30.08in /  1018.5hPa Calm     37% 0.00in /  0mm 0 W/m2
20:09 46.2 °F /  7.9 °C 22.5 °F /  -5.3 °C 30.09in /  1018.8hPa Calm     38.8% 0.00in /  0mm 0 W/m2
20:14 46 °F /  7.8 °C 23.1 °F /  -4.9 °C 30.09in /  1018.8hPa Calm   2mph /  3.2km/h 40.1% 0.00in /  0mm 0 W/m2
20:19 45.7 °F /  7.6 °C 23.2 °F /  -4.9 °C 30.08in /  1018.5hPa West 1.2mph /  1.9km/h 6mph /  9.7km/h 40.8% 0.00in /  0mm 0 W/m2
20:24 45.4 °F /  7.4 °C 24.2 °F /  -4.3 °C 30.09in /  1018.8hPa West 0.2mph /  0.3km/h 6mph /  9.7km/h 43.1% 0.00in /  0mm 0 W/m2
20:29 45.1 °F /  7.3 °C 25.3 °F /  -3.7 °C 30.09in /  1018.8hPa Calm   6mph /  9.7km/h 45.4% 0.00in /  0mm 0 W/m2
20:34 44.7 °F /  7.1 °C 23.9 °F /  -4.5 °C 30.09in /  1018.8hPa West 0.3mph /  0.5km/h 6mph /  9.7km/h 43.5% 0.00in /  0mm 0 W/m2
20:39 44.6 °F /  7 °C 24.1 °F /  -4.4 °C 30.10in /  1019.2hPa WNW 1.1mph /  1.8km/h 6mph /  9.7km/h 44% 0.00in /  0mm 0 W/m2
20:43 44.6 °F /  7 °C 24.6 °F /  -4.1 °C 30.10in /  1019.2hPa Calm   6mph /  9.7km/h 45% 0.00in /  0mm 0 W/m2
20:49 44.7 °F /  7.1 °C 24.7 °F /  -4.1 °C 30.10in /  1019.2hPa Calm   6mph /  9.7km/h 45% 0.00in /  0mm 0 W/m2
20:54 44.7 °F /  7.1 °C 24.7 °F /  -4.1 °C 30.10in /  1019.2hPa Calm   6mph /  9.7km/h 45% 0.00in /  0mm 0 W/m2
20:59 44.7 °F /  7.1 °C 24.6 °F /  -4.1 °C 30.10in /  1019.2hPa NNW 1.5mph /  2.4km/h 7mph /  11.3km/h 44.9% 0.00in /  0mm 0 W/m2
21:04 44.7 °F /  7.1 °C 25.2 °F /  -3.8 °C 30.11in /  1019.5hPa Calm   7mph /  11.3km/h 45.9% 0.00in /  0mm 0 W/m2
21:09 44.7 °F /  7.1 °C 25.3 °F /  -3.7 °C 30.11in /  1019.5hPa Calm   1mph /  1.6km/h 46.2% 0.00in /  0mm 0 W/m2
21:14 44.6 °F /  7 °C 25.7 °F /  -3.5 °C 30.12in /  1019.9hPa NNW 0.1mph /  0.2km/h 1mph /  1.6km/h 47% 0.00in /  0mm 0 W/m2
21:19 44.6 °F /  7 °C 25.6 °F /  -3.6 °C 30.12in /  1019.9hPa NNW 0.1mph /  0.2km/h 2mph /  3.2km/h 47% 0.00in /  0mm 0 W/m2
21:24 44.5 °F /  6.9 °C 25.5 °F /  -3.6 °C 30.12in /  1019.9hPa Calm   2mph /  3.2km/h 47% 0.00in /  0mm 0 W/m2
21:29 44.4 °F /  6.9 °C 25.9 °F /  -3.4 °C 30.11in /  1019.5hPa Calm   2mph /  3.2km/h 47.8% 0.00in /  0mm 0 W/m2
21:34 44.4 °F /  6.9 °C 26.2 °F /  -3.2 °C 30.11in /  1019.5hPa NNW 0.1mph /  0.2km/h 2mph /  3.2km/h 48.5% 0.00in /  0mm 0 W/m2
21:39 44.3 °F /  6.8 °C 27.9 °F /  -2.3 °C 30.12in /  1019.9hPa Calm   2mph /  3.2km/h 52.1% 0.00in /  0mm 0 W/m2
21:44 44.3 °F /  6.8 °C 28.4 °F /  -2 °C 30.12in /  1019.9hPa NNW 1.1mph /  1.8km/h 6mph /  9.7km/h 53.3% 0.00in /  0mm 0 W/m2
21:49 44.3 °F /  6.8 °C 27.9 °F /  -2.3 °C 30.12in /  1019.9hPa NNW 2mph /  3.2km/h 9mph /  14.5km/h 52.2% 0.00in /  0mm 0 W/m2
21:54 44.3 °F /  6.8 °C 28.6 °F /  -1.9 °C 30.12in /  1019.9hPa NNW 3.2mph /  5.1km/h 9mph /  14.5km/h 53.7% 0.00in /  0mm 0 W/m2
21:59 44.5 °F /  6.9 °C 29.4 °F /  -1.4 °C 30.13in /  1020.2hPa WNW 4.1mph /  6.6km/h 14mph /  22.5km/h 55.2% 0.00in /  0mm 0 W/m2
22:04 44.7 °F /  7.1 °C 29.7 °F /  -1.3 °C 30.12in /  1019.9hPa WNW 6mph /  9.7km/h 14mph /  22.5km/h 55.4% 0.00in /  0mm 0 W/m2
22:09 44.8 °F /  7.1 °C 29.9 °F /  -1.2 °C 30.13in /  1020.2hPa WNW 5mph /  8km/h 13mph /  20.9km/h 55.6% 0.00in /  0mm 0 W/m2
22:14 44.8 °F /  7.1 °C 29.6 °F /  -1.3 °C 30.13in /  1020.2hPa NW 5.4mph /  8.7km/h 13mph /  20.9km/h 54.9% 0.00in /  0mm 0 W/m2
22:19 44.9 °F /  7.2 °C 29.4 °F /  -1.4 °C 30.13in /  1020.2hPa WNW 4.5mph /  7.2km/h 13mph /  20.9km/h 54.2% 0.00in /  0mm 0 W/m2
22:24 44.9 °F /  7.2 °C 29.7 °F /  -1.3 °C 30.14in /  1020.5hPa WNW 5.8mph /  9.3km/h 14mph /  22.5km/h 55% 0.00in /  0mm 0 W/m2
22:29 44.9 °F /  7.2 °C 29.8 °F /  -1.2 °C 30.14in /  1020.5hPa WNW 4.2mph /  6.8km/h 14mph /  22.5km/h 55.1% 0.00in /  0mm 0 W/m2
22:34 44.8 °F /  7.1 °C 29.9 °F /  -1.2 °C 30.14in /  1020.5hPa NW 5.4mph /  8.7km/h 14mph /  22.5km/h 55.5% 0.00in /  0mm 0 W/m2
22:39 44.7 °F /  7.1 °C 29.9 °F /  -1.2 °C 30.15in /  1020.9hPa WNW 3.7mph /  6km/h 13mph /  20.9km/h 55.8% 0.00in /  0mm 0 W/m2
22:44 44.6 °F /  7 °C 30.1 °F /  -1.1 °C 30.15in /  1020.9hPa WNW 1.2mph /  1.9km/h 13mph /  20.9km/h 56.3% 0.00in /  0mm 0 W/m2
22:49 44.5 °F /  6.9 °C 29.8 °F /  -1.2 °C 30.15in /  1020.9hPa NW 3.9mph /  6.3km/h 16mph /  25.7km/h 56% 0.00in /  0mm 0 W/m2
22:54 44.2 °F /  6.8 °C 29.8 °F /  -1.2 °C 30.15in /  1020.9hPa NW 1.2mph /  1.9km/h 16mph /  25.7km/h 56.7% 0.00in /  0mm 0 W/m2
22:59 44 °F /  6.7 °C 29.8 °F /  -1.2 °C 30.16in /  1021.2hPa NW 1.6mph /  2.6km/h 16mph /  25.7km/h 57% 0.00in /  0mm 0 W/m2
23:09 43.5 °F /  6.4 °C 29.6 °F /  -1.3 °C 30.16in /  1021.2hPa NW 2.8mph /  4.5km/h 8mph /  12.9km/h 57.7% 0.00in /  0mm 0 W/m2
23:14 43.3 °F /  6.3 °C 29.5 °F /  -1.4 °C 30.16in /  1021.2hPa WNW 4.6mph /  7.4km/h 11mph /  17.7km/h 58% 0.00in /  0mm 0 W/m2
23:19 43.2 °F /  6.2 °C 29.4 °F /  -1.4 °C 30.15in /  1020.9hPa WNW 2.5mph /  4km/h 11mph /  17.7km/h 58% 0.00in /  0mm 0 W/m2
23:24 43 °F /  6.1 °C 29.3 °F /  -1.5 °C 30.15in /  1020.9hPa NW 2.4mph /  3.9km/h 11mph /  17.7km/h 58% 0.00in /  0mm 0 W/m2
23:29 42.8 °F /  6 °C 29.2 °F /  -1.6 °C 30.16in /  1021.2hPa NW 2.3mph /  3.7km/h 11mph /  17.7km/h 58.3% 0.00in /  0mm 0 W/m2
23:34 42.7 °F /  5.9 °C 29.3 °F /  -1.5 °C 30.17in /  1021.6hPa WNW 3mph /  4.8km/h 11mph /  17.7km/h 58.8% 0.00in /  0mm 0 W/m2
23:39 42.6 °F /  5.9 °C 29.3 °F /  -1.5 °C 30.17in /  1021.6hPa WNW 2.9mph /  4.7km/h 10mph /  16.1km/h 59% 0.00in /  0mm 0 W/m2
23:44 42.4 °F /  5.8 °C 29.1 °F /  -1.6 °C 30.17in /  1021.6hPa NW 4.8mph /  7.7km/h 11mph /  17.7km/h 59% 0.00in /  0mm 0 W/m2
23:49 42.4 °F /  5.8 °C 29.1 °F /  -1.6 °C 30.17in /  1021.6hPa WNW 4.5mph /  7.2km/h 11mph /  17.7km/h 59% 0.00in /  0mm 0 W/m2
23:53 42.4 °F /  5.8 °C 29.1 °F /  -1.6 °C 30.17in /  1021.6hPa WNW 0.5mph /  0.8km/h 11mph /  17.7km/h 59% 0.00in /  0mm 0 W/m2
Hartford County Weather
Compliments of Weather Underground - 2 mb